sensor_id;sensor_type;location;lat;lon;timestamp;pressure;altitude;pressure_sealevel;temperature;humidity
64632;BME280;58358;50.936;0.246;2023-05-21T00:00:27;101529.22;;;7.48;72.47
64632;BME280;58358;50.936;0.246;2023-05-21T00:02:52;101521.70;;;7.05;74.18
64632;BME280;58358;50.936;0.246;2023-05-21T00:05:17;101524.67;;;7.87;71.40
64632;BME280;58358;50.936;0.246;2023-05-21T00:07:43;101525.22;;;7.60;72.94
64632;BME280;58358;50.936;0.246;2023-05-21T00:10:09;101522.26;;;6.85;75.91
64632;BME280;58358;50.936;0.246;2023-05-21T00:12:34;101518.74;;;7.47;72.63
64632;BME280;58358;50.936;0.246;2023-05-21T00:15:00;101519.18;;;7.15;75.44
64632;BME280;58358;50.936;0.246;2023-05-21T00:17:25;101520.97;;;7.57;73.29
64632;BME280;58358;50.936;0.246;2023-05-21T00:19:50;101520.51;;;6.90;74.67
64632;BME280;58358;50.936;0.246;2023-05-21T00:22:16;101522.29;;;7.22;74.68
64632;BME280;58358;50.936;0.246;2023-05-21T00:24:42;101521.94;;;6.78;76.96
64632;BME280;58358;50.936;0.246;2023-05-21T00:27:07;101522.21;;;7.17;74.80
64632;BME280;58358;50.936;0.246;2023-05-21T00:29:33;101520.97;;;7.46;74.98
64632;BME280;58358;50.936;0.246;2023-05-21T00:31:58;101519.44;;;7.48;73.91
64632;BME280;58358;50.936;0.246;2023-05-21T00:34:24;101515.89;;;7.74;73.04
64632;BME280;58358;50.936;0.246;2023-05-21T00:36:49;101514.52;;;7.23;75.95
64632;BME280;58358;50.936;0.246;2023-05-21T00:39:15;101511.37;;;7.58;76.55
64632;BME280;58358;50.936;0.246;2023-05-21T00:41:40;101510.26;;;6.82;78.56
64632;BME280;58358;50.936;0.246;2023-05-21T00:44:06;101510.56;;;6.82;77.87
64632;BME280;58358;50.936;0.246;2023-05-21T00:46:31;101506.15;;;6.70;79.78
64632;BME280;58358;50.936;0.246;2023-05-21T00:48:56;101500.52;;;6.43;81.30
64632;BME280;58358;50.936;0.246;2023-05-21T00:51:22;101504.89;;;6.72;79.37
64632;BME280;58358;50.936;0.246;2023-05-21T00:53:49;101499.97;;;6.83;79.66
64632;BME280;58358;50.936;0.246;2023-05-21T00:56:13;101503.16;;;6.93;81.19
64632;BME280;58358;50.936;0.246;2023-05-21T00:58:40;101499.22;;;6.83;81.07
64632;BME280;58358;50.936;0.246;2023-05-21T01:01:04;101495.03;;;6.47;83.31
64632;BME280;58358;50.936;0.246;2023-05-21T01:03:29;101501.61;;;6.61;85.17
64632;BME280;58358;50.936;0.246;2023-05-21T01:05:55;101502.19;;;6.55;84.18
64632;BME280;58358;50.936;0.246;2023-05-21T01:08:21;101502.29;;;6.14;86.96
64632;BME280;58358;50.936;0.246;2023-05-21T01:10:47;101503.47;;;5.73;87.59
64632;BME280;58358;50.936;0.246;2023-05-21T01:13:13;101494.36;;;7.39;81.85
64632;BME280;58358;50.936;0.246;2023-05-21T01:15:37;101488.32;;;6.59;83.66
64632;BME280;58358;50.936;0.246;2023-05-21T01:18:03;101489.15;;;7.11;84.22
64632;BME280;58358;50.936;0.246;2023-05-21T01:20:28;101485.93;;;6.96;84.67
64632;BME280;58358;50.936;0.246;2023-05-21T01:22:55;101482.94;;;6.59;85.62
64632;BME280;58358;50.936;0.246;2023-05-21T01:25:19;101480.28;;;6.14;88.64
64632;BME280;58358;50.936;0.246;2023-05-21T01:27:44;101483.20;;;5.91;86.57
64632;BME280;58358;50.936;0.246;2023-05-21T01:30:11;101484.12;;;6.46;85.02
64632;BME280;58358;50.936;0.246;2023-05-21T01:32:41;101483.20;;;6.52;87.33
64632;BME280;58358;50.936;0.246;2023-05-21T01:35:04;101478.13;;;6.09;88.49
64632;BME280;58358;50.936;0.246;2023-05-21T01:37:31;101480.92;;;5.86;89.94
64632;BME280;58358;50.936;0.246;2023-05-21T01:39:55;101481.32;;;6.44;89.37
64632;BME280;58358;50.936;0.246;2023-05-21T01:42:18;101469.44;;;6.22;90.98
64632;BME280;58358;50.936;0.246;2023-05-21T01:44:44;101472.53;;;6.51;89.65
64632;BME280;58358;50.936;0.246;2023-05-21T01:47:09;101465.91;;;6.40;90.24
64632;BME280;58358;50.936;0.246;2023-05-21T01:49:35;101469.52;;;7.09;86.67
64632;BME280;58358;50.936;0.246;2023-05-21T01:52:01;101463.37;;;6.70;88.18
64632;BME280;58358;50.936;0.246;2023-05-21T01:54:25;101462.40;;;6.21;91.37
64632;BME280;58358;50.936;0.246;2023-05-21T01:56:51;101455.18;;;5.94;92.54
64632;BME280;58358;50.936;0.246;2023-05-21T01:59:17;101455.95;;;6.23;92.43
64632;BME280;58358;50.936;0.246;2023-05-21T02:01:43;101454.81;;;6.29;92.47
64632;BME280;58358;50.936;0.246;2023-05-21T02:04:09;101458.71;;;6.34;90.70
64632;BME280;58358;50.936;0.246;2023-05-21T02:06:34;101457.48;;;6.45;91.50
64632;BME280;58358;50.936;0.246;2023-05-21T02:09:00;101459.30;;;6.30;92.22
64632;BME280;58358;50.936;0.246;2023-05-21T02:11:26;101454.10;;;6.17;92.66
64632;BME280;58358;50.936;0.246;2023-05-21T02:13:51;101451.32;;;6.28;92.95
64632;BME280;58358;50.936;0.246;2023-05-21T02:16:17;101453.50;;;6.50;91.60
64632;BME280;58358;50.936;0.246;2023-05-21T02:18:43;101452.37;;;5.79;92.05
64632;BME280;58358;50.936;0.246;2023-05-21T02:21:09;101455.39;;;5.78;93.90
64632;BME280;58358;50.936;0.246;2023-05-21T02:23:33;101452.03;;;6.37;93.15
64632;BME280;58358;50.936;0.246;2023-05-21T02:25:59;101459.03;;;6.36;91.68
64632;BME280;58358;50.936;0.246;2023-05-21T02:28:24;101456.35;;;6.34;92.21
64632;BME280;58358;50.936;0.246;2023-05-21T02:30:49;101456.33;;;6.40;92.99
64632;BME280;58358;50.936;0.246;2023-05-21T02:33:15;101459.89;;;5.59;96.03
64632;BME280;58358;50.936;0.246;2023-05-21T02:35:41;101460.51;;;4.93;100.00
64632;BME280;58358;50.936;0.246;2023-05-21T02:38:05;101462.03;;;5.81;98.53
64632;BME280;58358;50.936;0.246;2023-05-21T02:40:31;101464.80;;;5.68;100.00
64632;BME280;58358;50.936;0.246;2023-05-21T02:42:57;101460.11;;;5.60;98.14
64632;BME280;58358;50.936;0.246;2023-05-21T02:45:22;101462.11;;;5.79;96.56
64632;BME280;58358;50.936;0.246;2023-05-21T02:47:47;101459.10;;;5.83;95.16
64632;BME280;58358;50.936;0.246;2023-05-21T02:50:13;101460.72;;;6.27;95.14
64632;BME280;58358;50.936;0.246;2023-05-21T02:52:38;101460.34;;;6.17;97.16
64632;BME280;58358;50.936;0.246;2023-05-21T02:55:05;101456.65;;;5.86;96.28
64632;BME280;58358;50.936;0.246;2023-05-21T02:57:29;101456.46;;;5.34;98.06
64632;BME280;58358;50.936;0.246;2023-05-21T02:59:55;101455.45;;;6.07;97.87
64632;BME280;58358;50.936;0.246;2023-05-21T03:02:20;101452.37;;;5.44;99.38
64632;BME280;58358;50.936;0.246;2023-05-21T03:04:45;101450.98;;;5.15;100.00
64632;BME280;58358;50.936;0.246;2023-05-21T03:07:11;101453.56;;;5.26;100.00
64632;BME280;58358;50.936;0.246;2023-05-21T03:09:37;101455.14;;;5.83;100.00
64632;BME280;58358;50.936;0.246;2023-05-21T03:12:03;101450.80;;;5.91;100.00
64632;BME280;58358;50.936;0.246;2023-05-21T03:14:28;101449.95;;;6.17;98.39
64632;BME280;58358;50.936;0.246;2023-05-21T03:16:54;101447.84;;;6.27;96.88
64632;BME280;58358;50.936;0.246;2023-05-21T03:19:19;101450.73;;;5.78;100.00
64632;BME280;58358;50.936;0.246;2023-05-21T03:21:44;101449.61;;;5.12;100.00
64632;BME280;58358;50.936;0.246;2023-05-21T03:24:10;101447.01;;;6.29;99.73
64632;BME280;58358;50.936;0.246;2023-05-21T03:26:36;101448.46;;;6.28;99.94
64632;BME280;58358;50.936;0.246;2023-05-21T03:29:01;101453.92;;;5.65;99.50
64632;BME280;58358;50.936;0.246;2023-05-21T03:31:26;101462.93;;;5.43;100.00
64632;BME280;58358;50.936;0.246;2023-05-21T03:33:52;101457.85;;;5.07;100.00
64632;BME280;58358;50.936;0.246;2023-05-21T03:36:18;101460.70;;;5.20;100.00
64632;BME280;58358;50.936;0.246;2023-05-21T03:38:44;101459.33;;;5.34;100.00
64632;BME280;58358;50.936;0.246;2023-05-21T03:41:10;101457.40;;;5.51;100.00
64632;BME280;58358;50.936;0.246;2023-05-21T03:43:34;101455.58;;;5.77;100.00
64632;BME280;58358;50.936;0.246;2023-05-21T03:46:00;101458.85;;;5.56;100.00
64632;BME280;58358;50.936;0.246;2023-05-21T03:48:25;101455.11;;;5.17;100.00
64632;BME280;58358;50.936;0.246;2023-05-21T03:50:51;101460.30;;;4.93;100.00
64632;BME280;58358;50.936;0.246;2023-05-21T03:53:16;101461.40;;;4.82;100.00
64632;BME280;58358;50.936;0.246;2023-05-21T03:55:42;101463.75;;;5.09;100.00
64632;BME280;58358;50.936;0.246;2023-05-21T03:58:07;101466.99;;;5.31;100.00
64632;BME280;58358;50.936;0.246;2023-05-21T04:00:33;101468.26;;;5.62;100.00
64632;BME280;58358;50.936;0.246;2023-05-21T04:02:59;101471.57;;;5.37;100.00
64632;BME280;58358;50.936;0.246;2023-05-21T04:05:24;101473.50;;;5.52;100.00
64632;BME280;58358;50.936;0.246;2023-05-21T04:07:50;101468.95;;;4.88;100.00
64632;BME280;58358;50.936;0.246;2023-05-21T04:10:16;101464.84;;;4.65;100.00
64632;BME280;58358;50.936;0.246;2023-05-21T04:12:41;101458.57;;;5.37;100.00
64632;BME280;58358;50.936;0.246;2023-05-21T04:15:07;101456.94;;;6.35;100.00
64632;BME280;58358;50.936;0.246;2023-05-21T04:17:32;101469.58;;;5.52;100.00
64632;BME280;58358;50.936;0.246;2023-05-21T04:19:58;101460.26;;;4.57;100.00
64632;BME280;58358;50.936;0.246;2023-05-21T04:22:23;101462.94;;;4.94;100.00
64632;BME280;58358;50.936;0.246;2023-05-21T04:24:49;101462.74;;;4.85;100.00
64632;BME280;58358;50.936;0.246;2023-05-21T04:27:14;101463.07;;;5.32;100.00
64632;BME280;58358;50.936;0.246;2023-05-21T04:29:40;101465.85;;;4.98;100.00
64632;BME280;58358;50.936;0.246;2023-05-21T04:32:05;101461.17;;;5.12;100.00
64632;BME280;58358;50.936;0.246;2023-05-21T04:34:30;101459.63;;;5.23;100.00
64632;BME280;58358;50.936;0.246;2023-05-21T04:36:55;101464.80;;;5.61;100.00
64632;BME280;58358;50.936;0.246;2023-05-21T04:39:21;101464.61;;;5.35;100.00
64632;BME280;58358;50.936;0.246;2023-05-21T04:41:47;101459.35;;;5.40;100.00
64632;BME280;58358;50.936;0.246;2023-05-21T04:44:12;101462.34;;;5.39;100.00
64632;BME280;58358;50.936;0.246;2023-05-21T04:46:38;101462.17;;;5.49;100.00
64632;BME280;58358;50.936;0.246;2023-05-21T04:49:04;101465.25;;;5.45;100.00
64632;BME280;58358;50.936;0.246;2023-05-21T04:51:29;101469.68;;;5.66;100.00
64632;BME280;58358;50.936;0.246;2023-05-21T04:53:54;101470.06;;;5.91;100.00
64632;BME280;58358;50.936;0.246;2023-05-21T04:56:19;101477.14;;;5.19;100.00
64632;BME280;58358;50.936;0.246;2023-05-21T04:58:45;101476.98;;;4.76;100.00
64632;BME280;58358;50.936;0.246;2023-05-21T05:01:10;101473.66;;;5.74;100.00
64632;BME280;58358;50.936;0.246;2023-05-21T05:03:36;101472.72;;;6.06;100.00
64632;BME280;58358;50.936;0.246;2023-05-21T05:06:01;101472.27;;;5.38;100.00
64632;BME280;58358;50.936;0.246;2023-05-21T05:08:27;101473.03;;;6.02;100.00
64632;BME280;58358;50.936;0.246;2023-05-21T05:10:52;101471.73;;;6.51;100.00
64632;BME280;58358;50.936;0.246;2023-05-21T05:13:18;101468.43;;;5.97;100.00
64632;BME280;58358;50.936;0.246;2023-05-21T05:15:44;101477.68;;;5.87;100.00
64632;BME280;58358;50.936;0.246;2023-05-21T05:18:10;101472.80;;;6.42;100.00
64632;BME280;58358;50.936;0.246;2023-05-21T05:20:35;101477.71;;;5.35;100.00
64632;BME280;58358;50.936;0.246;2023-05-21T05:23:01;101478.86;;;6.07;100.00
64632;BME280;58358;50.936;0.246;2023-05-21T05:25:26;101471.88;;;6.39;100.00
64632;BME280;58358;50.936;0.246;2023-05-21T05:27:52;101477.12;;;5.84;100.00
64632;BME280;58358;50.936;0.246;2023-05-21T05:30:18;101472.61;;;6.22;100.00
64632;BME280;58358;50.936;0.246;2023-05-21T05:32:43;101471.77;;;5.75;100.00
64632;BME280;58358;50.936;0.246;2023-05-21T05:35:09;101476.37;;;6.81;100.00
64632;BME280;58358;50.936;0.246;2023-05-21T05:37:34;101481.63;;;7.03;100.00
64632;BME280;58358;50.936;0.246;2023-05-21T05:39:59;101472.35;;;6.43;100.00
64632;BME280;58358;50.936;0.246;2023-05-21T05:42:25;101474.47;;;6.06;100.00
64632;BME280;58358;50.936;0.246;2023-05-21T05:44:50;101478.64;;;6.74;100.00
64632;BME280;58358;50.936;0.246;2023-05-21T05:47:15;101479.87;;;7.64;100.00
64632;BME280;58358;50.936;0.246;2023-05-21T05:49:41;101483.93;;;7.69;100.00
64632;BME280;58358;50.936;0.246;2023-05-21T05:52:06;101479.56;;;8.37;95.81
64632;BME280;58358;50.936;0.246;2023-05-21T05:54:31;101480.94;;;7.93;95.69
64632;BME280;58358;50.936;0.246;2023-05-21T05:56:57;101479.91;;;8.56;92.93
64632;BME280;58358;50.936;0.246;2023-05-21T05:59:22;101482.13;;;9.42;89.20
64632;BME280;58358;50.936;0.246;2023-05-21T06:01:47;101484.17;;;8.55;91.49
64632;BME280;58358;50.936;0.246;2023-05-21T06:04:13;101485.18;;;9.02;90.99
64632;BME280;58358;50.936;0.246;2023-05-21T06:06:39;101485.64;;;9.41;91.65
64632;BME280;58358;50.936;0.246;2023-05-21T06:09:04;101489.19;;;8.52;92.66
64632;BME280;58358;50.936;0.246;2023-05-21T06:11:30;101490.40;;;9.85;88.67
64632;BME280;58358;50.936;0.246;2023-05-21T06:13:55;101492.63;;;7.99;92.17
64632;BME280;58358;50.936;0.246;2023-05-21T06:16:21;101494.42;;;7.94;94.30
64632;BME280;58358;50.936;0.246;2023-05-21T06:18:47;101497.02;;;8.25;93.63
64632;BME280;58358;50.936;0.246;2023-05-21T06:21:13;101500.00;;;8.29;95.43
64632;BME280;58358;50.936;0.246;2023-05-21T06:23:38;101498.43;;;8.81;94.03
64632;BME280;58358;50.936;0.246;2023-05-21T06:26:04;101493.48;;;8.00;95.34
64632;BME280;58358;50.936;0.246;2023-05-21T06:28:30;101489.08;;;8.46;94.42
64632;BME280;58358;50.936;0.246;2023-05-21T06:30:55;101493.75;;;8.90;95.15
64632;BME280;58358;50.936;0.246;2023-05-21T06:33:20;101485.30;;;9.12;94.35
64632;BME280;58358;50.936;0.246;2023-05-21T06:35:46;101485.63;;;8.27;93.75
64632;BME280;58358;50.936;0.246;2023-05-21T06:38:12;101486.23;;;8.94;91.62
64632;BME280;58358;50.936;0.246;2023-05-21T06:40:37;101481.16;;;9.08;93.06
64632;BME280;58358;50.936;0.246;2023-05-21T06:43:02;101481.64;;;9.59;90.03
64632;BME280;58358;50.936;0.246;2023-05-21T06:45:28;101476.35;;;8.58;91.46
64632;BME280;58358;50.936;0.246;2023-05-21T06:47:54;101481.78;;;8.53;93.32
64632;BME280;58358;50.936;0.246;2023-05-21T06:50:20;101485.08;;;8.68;93.08
64632;BME280;58358;50.936;0.246;2023-05-21T06:52:45;101486.51;;;8.17;92.69
64632;BME280;58358;50.936;0.246;2023-05-21T06:55:11;101489.32;;;9.25;92.00
64632;BME280;58358;50.936;0.246;2023-05-21T06:57:36;101489.28;;;9.03;91.75
64632;BME280;58358;50.936;0.246;2023-05-21T07:00:02;101478.34;;;8.77;91.28
64632;BME280;58358;50.936;0.246;2023-05-21T07:02:28;101487.72;;;9.40;90.61
64632;BME280;58358;50.936;0.246;2023-05-21T07:04:53;101487.06;;;8.66;91.96
64632;BME280;58358;50.936;0.246;2023-05-21T07:07:18;101492.16;;;8.98;93.13
64632;BME280;58358;50.936;0.246;2023-05-21T07:09:44;101488.27;;;8.62;93.01
64632;BME280;58358;50.936;0.246;2023-05-21T07:12:10;101491.31;;;9.09;91.69
64632;BME280;58358;50.936;0.246;2023-05-21T07:14:35;101488.41;;;9.19;91.17
64632;BME280;58358;50.936;0.246;2023-05-21T07:17:02;101490.58;;;9.23;91.83
64632;BME280;58358;50.936;0.246;2023-05-21T07:19:27;101491.10;;;9.33;91.11
64632;BME280;58358;50.936;0.246;2023-05-21T07:21:53;101497.54;;;9.43;90.32
64632;BME280;58358;50.936;0.246;2023-05-21T07:24:18;101497.75;;;9.55;90.33
64632;BME280;58358;50.936;0.246;2023-05-21T07:26:44;101499.68;;;8.58;91.20
64632;BME280;58358;50.936;0.246;2023-05-21T07:29:10;101500.64;;;9.31;88.96
64632;BME280;58358;50.936;0.246;2023-05-21T07:31:36;101507.12;;;9.81;88.23
64632;BME280;58358;50.936;0.246;2023-05-21T07:34:01;101502.77;;;9.80;86.58
64632;BME280;58358;50.936;0.246;2023-05-21T07:36:27;101506.23;;;10.85;83.98
64632;BME280;58358;50.936;0.246;2023-05-21T07:38:52;101505.09;;;10.66;82.37
64632;BME280;58358;50.936;0.246;2023-05-21T07:41:18;101502.31;;;10.83;81.73
64632;BME280;58358;50.936;0.246;2023-05-21T07:43:44;101508.63;;;9.66;84.28
64632;BME280;58358;50.936;0.246;2023-05-21T07:46:09;101513.21;;;10.57;83.44
64632;BME280;58358;50.936;0.246;2023-05-21T07:48:35;101510.01;;;10.60;81.77
64632;BME280;58358;50.936;0.246;2023-05-21T07:51:02;101518.58;;;11.14;79.99
64632;BME280;58358;50.936;0.246;2023-05-21T07:53:27;101511.68;;;10.69;80.46
64632;BME280;58358;50.936;0.246;2023-05-21T07:55:52;101515.30;;;10.82;81.39
64632;BME280;58358;50.936;0.246;2023-05-21T07:58:18;101520.75;;;11.01;80.61
64632;BME280;58358;50.936;0.246;2023-05-21T08:00:45;101522.42;;;10.73;82.78
64632;BME280;58358;50.936;0.246;2023-05-21T08:03:10;101515.95;;;11.59;78.92
64632;BME280;58358;50.936;0.246;2023-05-21T08:05:35;101517.52;;;11.62;77.92
64632;BME280;58358;50.936;0.246;2023-05-21T08:08:01;101521.20;;;10.70;79.94
64632;BME280;58358;50.936;0.246;2023-05-21T08:10:27;101523.73;;;11.02;78.62
64632;BME280;58358;50.936;0.246;2023-05-21T08:12:53;101514.71;;;9.66;79.13
64632;BME280;58358;50.936;0.246;2023-05-21T08:15:18;101513.58;;;10.73;78.90
64632;BME280;58358;50.936;0.246;2023-05-21T08:17:44;101515.81;;;11.59;78.63
64632;BME280;58358;50.936;0.246;2023-05-21T08:20:11;101511.20;;;11.79;76.17
64632;BME280;58358;50.936;0.246;2023-05-21T08:22:36;101508.99;;;11.23;77.15
64632;BME280;58358;50.936;0.246;2023-05-21T08:25:01;101502.77;;;10.59;80.55
64632;BME280;58358;50.936;0.246;2023-05-21T08:27:27;101498.72;;;11.34;78.52
64632;BME280;58358;50.936;0.246;2023-05-21T08:29:53;101498.69;;;11.45;78.10
64632;BME280;58358;50.936;0.246;2023-05-21T08:32:18;101494.85;;;10.74;79.98
64632;BME280;58358;50.936;0.246;2023-05-21T08:34:44;101496.29;;;10.41;79.16
64632;BME280;58358;50.936;0.246;2023-05-21T08:37:10;101500.16;;;10.94;79.85
64632;BME280;58358;50.936;0.246;2023-05-21T08:39:36;101488.39;;;10.66;80.29
64632;BME280;58358;50.936;0.246;2023-05-21T08:42:08;101490.46;;;11.74;78.05
64632;BME280;58358;50.936;0.246;2023-05-21T08:44:30;101491.37;;;11.34;77.94
64632;BME280;58358;50.936;0.246;2023-05-21T08:46:54;101497.63;;;11.56;77.30
64632;BME280;58358;50.936;0.246;2023-05-21T08:49:21;101502.23;;;11.86;76.05
64632;BME280;58358;50.936;0.246;2023-05-21T08:51:44;101506.13;;;11.94;76.01
64632;BME280;58358;50.936;0.246;2023-05-21T08:54:10;101506.27;;;12.24;74.13
64632;BME280;58358;50.936;0.246;2023-05-21T08:56:36;101505.81;;;12.48;72.63
64632;BME280;58358;50.936;0.246;2023-05-21T08:59:02;101503.23;;;12.16;71.60
64632;BME280;58358;50.936;0.246;2023-05-21T09:01:28;101504.49;;;13.69;68.87
64632;BME280;58358;50.936;0.246;2023-05-21T09:03:55;101501.72;;;12.96;69.19
64632;BME280;58358;50.936;0.246;2023-05-21T09:06:18;101507.38;;;12.85;68.88
64632;BME280;58358;50.936;0.246;2023-05-21T09:08:48;101506.09;;;12.20;69.93
64632;BME280;58358;50.936;0.246;2023-05-21T09:11:10;101492.41;;;13.01;66.75
64632;BME280;58358;50.936;0.246;2023-05-21T09:13:37;101494.20;;;12.14;71.24
64632;BME280;58358;50.936;0.246;2023-05-21T09:16:01;101501.48;;;13.20;68.22
64632;BME280;58358;50.936;0.246;2023-05-21T09:18:27;101496.74;;;12.66;68.69
64632;BME280;58358;50.936;0.246;2023-05-21T09:20:52;101494.92;;;14.17;64.23
64632;BME280;58358;50.936;0.246;2023-05-21T09:23:18;101499.65;;;13.88;64.77
64632;BME280;58358;50.936;0.246;2023-05-21T09:25:45;101489.51;;;14.29;61.84
64632;BME280;58358;50.936;0.246;2023-05-21T09:28:11;101478.92;;;13.52;66.26
64632;BME280;58358;50.936;0.246;2023-05-21T09:30:35;101491.52;;;13.95;65.68
64632;BME280;58358;50.936;0.246;2023-05-21T09:33:01;101486.20;;;14.46;62.93
64632;BME280;58358;50.936;0.246;2023-05-21T09:35:27;101480.30;;;14.07;62.12
64632;BME280;58358;50.936;0.246;2023-05-21T09:37:53;101493.97;;;13.68;64.28
64632;BME280;58358;50.936;0.246;2023-05-21T09:40:19;101490.05;;;13.95;61.17
64632;BME280;58358;50.936;0.246;2023-05-21T09:42:46;101484.02;;;13.57;62.98
64632;BME280;58358;50.936;0.246;2023-05-21T09:45:10;101482.54;;;13.49;65.53
64632;BME280;58358;50.936;0.246;2023-05-21T09:47:40;101482.56;;;13.41;66.04
64632;BME280;58358;50.936;0.246;2023-05-21T09:50:00;101486.42;;;13.72;64.84
64632;BME280;58358;50.936;0.246;2023-05-21T09:52:26;101485.44;;;14.22;64.67
64632;BME280;58358;50.936;0.246;2023-05-21T09:54:52;101484.85;;;13.41;67.96
64632;BME280;58358;50.936;0.246;2023-05-21T09:57:23;101473.41;;;13.64;69.08
64632;BME280;58358;50.936;0.246;2023-05-21T09:59:43;101474.28;;;13.93;66.14
64632;BME280;58358;50.936;0.246;2023-05-21T10:02:15;101473.87;;;13.95;64.98
64632;BME280;58358;50.936;0.246;2023-05-21T10:04:34;101471.79;;;14.70;63.89
64632;BME280;58358;50.936;0.246;2023-05-21T10:07:00;101474.14;;;14.18;65.95
64632;BME280;58358;50.936;0.246;2023-05-21T10:09:26;101465.87;;;14.30;65.46
64632;BME280;58358;50.936;0.246;2023-05-21T10:11:54;101458.19;;;13.72;64.92
64632;BME280;58358;50.936;0.246;2023-05-21T10:14:19;101466.14;;;14.51;65.87
64632;BME280;58358;50.936;0.246;2023-05-21T10:16:43;101463.07;;;13.95;64.91
64632;BME280;58358;50.936;0.246;2023-05-21T10:19:08;101467.52;;;14.34;64.85
64632;BME280;58358;50.936;0.246;2023-05-21T10:21:33;101466.32;;;14.36;64.51
64632;BME280;58358;50.936;0.246;2023-05-21T10:24:01;101462.70;;;14.80;61.56
64632;BME280;58358;50.936;0.246;2023-05-21T10:26:25;101468.99;;;15.17;60.10
64632;BME280;58358;50.936;0.246;2023-05-21T10:28:55;101475.49;;;15.27;60.49
64632;BME280;58358;50.936;0.246;2023-05-21T10:31:15;101474.69;;;13.88;62.53
64632;BME280;58358;50.936;0.246;2023-05-21T10:33:42;101470.76;;;14.55;61.40
64632;BME280;58358;50.936;0.246;2023-05-21T10:36:05;101478.92;;;14.33;63.13
64632;BME280;58358;50.936;0.246;2023-05-21T10:38:32;101478.28;;;13.78;64.11
64632;BME280;58358;50.936;0.246;2023-05-21T10:40:56;101478.11;;;13.66;65.03
64632;BME280;58358;50.936;0.246;2023-05-21T10:43:33;101479.84;;;13.98;63.64
64632;BME280;58358;50.936;0.246;2023-05-21T10:46:00;101471.96;;;13.97;63.22
64632;BME280;58358;50.936;0.246;2023-05-21T10:48:25;101459.80;;;13.37;65.56
64632;BME280;58358;50.936;0.246;2023-05-21T10:50:55;101460.79;;;14.25;64.62
64632;BME280;58358;50.936;0.246;2023-05-21T10:53:12;101451.74;;;14.84;59.93
64632;BME280;58358;50.936;0.246;2023-05-21T10:55:40;101446.06;;;15.00;59.46
64632;BME280;58358;50.936;0.246;2023-05-21T10:58:15;101437.76;;;14.94;60.92
64632;BME280;58358;50.936;0.246;2023-05-21T11:00:21;101436.62;;;14.34;62.56
64632;BME280;58358;50.936;0.246;2023-05-21T11:02:47;101433.67;;;14.76;61.45
64632;BME280;58358;50.936;0.246;2023-05-21T11:05:12;101436.18;;;15.48;59.40
64632;BME280;58358;50.936;0.246;2023-05-21T11:07:49;101442.09;;;13.94;62.92
64632;BME280;58358;50.936;0.246;2023-05-21T11:12:33;101451.06;;;14.75;62.74
64632;BME280;58358;50.936;0.246;2023-05-21T11:14:56;101439.02;;;14.37;61.52
64632;BME280;58358;50.936;0.246;2023-05-21T11:19:45;101432.83;;;15.53;57.91
64632;BME280;58358;50.936;0.246;2023-05-21T11:22:21;101430.79;;;15.47;58.51
64632;BME280;58358;50.936;0.246;2023-05-21T11:24:39;101433.07;;;16.16;57.81
64632;BME280;58358;50.936;0.246;2023-05-21T11:27:02;101433.71;;;16.40;56.91
64632;BME280;58358;50.936;0.246;2023-05-21T11:29:38;101436.53;;;15.36;57.29
64632;BME280;58358;50.936;0.246;2023-05-21T11:31:59;101425.55;;;13.99;59.24
64632;BME280;58358;50.936;0.246;2023-05-21T11:34:20;101448.10;;;14.00;62.00
64632;BME280;58358;50.936;0.246;2023-05-21T11:36:46;101427.87;;;14.10;61.49
64632;BME280;58358;50.936;0.246;2023-05-21T11:39:12;101424.06;;;14.25;60.66
64632;BME280;58358;50.936;0.246;2023-05-21T11:41:50;101438.42;;;14.59;59.04
64632;BME280;58358;50.936;0.246;2023-05-21T11:44:02;101435.08;;;13.32;62.31
64632;BME280;58358;50.936;0.246;2023-05-21T11:46:27;101435.94;;;13.83;61.94
64632;BME280;58358;50.936;0.246;2023-05-21T11:48:54;101430.91;;;14.04;60.90
64632;BME280;58358;50.936;0.246;2023-05-21T11:51:19;101432.92;;;14.81;59.15
64632;BME280;58358;50.936;0.246;2023-05-21T11:53:45;101432.70;;;14.33;59.65
64632;BME280;58358;50.936;0.246;2023-05-21T11:56:11;101436.81;;;13.68;60.32
64632;BME280;58358;50.936;0.246;2023-05-21T11:58:36;101431.20;;;13.87;60.66
64632;BME280;58358;50.936;0.246;2023-05-21T12:01:01;101426.57;;;15.09;58.68
64632;BME280;58358;50.936;0.246;2023-05-21T12:03:27;101430.08;;;16.61;54.37
64632;BME280;58358;50.936;0.246;2023-05-21T12:05:53;101427.32;;;15.93;52.43
64632;BME280;58358;50.936;0.246;2023-05-21T12:08:21;101425.56;;;16.37;51.50
64632;BME280;58358;50.936;0.246;2023-05-21T12:10:44;101431.65;;;15.68;51.24
64632;BME280;58358;50.936;0.246;2023-05-21T12:13:09;101440.95;;;15.68;52.04
64632;BME280;58358;50.936;0.246;2023-05-21T12:15:41;101439.69;;;15.17;52.85
64632;BME280;58358;50.936;0.246;2023-05-21T12:18:01;101444.09;;;15.74;50.82
64632;BME280;58358;50.936;0.246;2023-05-21T12:20:27;101439.75;;;16.19;50.42
64632;BME280;58358;50.936;0.246;2023-05-21T12:22:52;101430.53;;;15.70;49.66
64632;BME280;58358;50.936;0.246;2023-05-21T12:25:18;101432.40;;;14.76;53.36
64632;BME280;58358;50.936;0.246;2023-05-21T12:27:43;101431.77;;;15.03;53.97
64632;BME280;58358;50.936;0.246;2023-05-21T12:30:08;101423.76;;;14.55;55.23
64632;BME280;58358;50.936;0.246;2023-05-21T12:32:34;101430.21;;;14.55;55.97
64632;BME280;58358;50.936;0.246;2023-05-21T12:34:59;101420.04;;;14.09;55.12
64632;BME280;58358;50.936;0.246;2023-05-21T12:37:26;101422.89;;;14.42;54.99
64632;BME280;58358;50.936;0.246;2023-05-21T12:39:52;101416.54;;;14.10;56.45
64632;BME280;58358;50.936;0.246;2023-05-21T12:42:23;101406.73;;;15.09;53.21
64632;BME280;58358;50.936;0.246;2023-05-21T12:44:44;101410.74;;;15.60;50.73
64632;BME280;58358;50.936;0.246;2023-05-21T12:47:08;101413.51;;;15.56;51.20
64632;BME280;58358;50.936;0.246;2023-05-21T12:49:34;101401.70;;;15.17;51.70